Somerton, United Kingdom
Current Conditions -  °F | °C
As of 7:59 PM on Tuesday 25 Nov 2014 (Local Time) from EGDY Reporting Station
Light Rain Light Rain  
Wind Chill: 40°   Ceiling: 2000
Heat Index: 43°   Visibility: 1.5mi
Dew Point: 43°   Wind: 5mph
Humidity: 100%   Direction: 20°NNE
Pressure: 30.03"   Gusts: NA
Location:  51.06°N, 2.71°W
Report Text: EGDY 251959Z 02004KT 2500 -RA SCT008 BKN020 06/06 Q1017 YLO1 BECMG 1500 RA SCT008 AMB
Loading
Personal Weather Stations






























Interactive Weather Map New forecast layout! Learn more

10-Day Weather Forecast

Advertisements
Track Severe Weather on mobile